sensor_id;sensor_type;location;lat;lon;timestamp;pressure;altitude;pressure_sealevel;temperature;humidity
44457;BME280;30159;49.316;8.558;2023-04-01T00:01:07;98920.97;;;10.90;100.00
44457;BME280;30159;49.316;8.558;2023-04-01T00:03:34;98931.13;;;10.75;100.00
44457;BME280;30159;49.316;8.558;2023-04-01T00:06:01;98924.47;;;10.73;100.00
44457;BME280;30159;49.316;8.558;2023-04-01T00:08:28;98921.59;;;10.69;100.00
44457;BME280;30159;49.316;8.558;2023-04-01T00:10:55;98933.03;;;10.66;100.00
44457;BME280;30159;49.316;8.558;2023-04-01T00:13:22;98924.47;;;10.73;100.00
44457;BME280;30159;49.316;8.558;2023-04-01T00:15:52;98934.31;;;10.78;100.00
44457;BME280;30159;49.316;8.558;2023-04-01T00:18:19;98929.88;;;10.73;100.00
44457;BME280;30159;49.316;8.558;2023-04-01T00:20:46;98925.25;;;10.73;100.00
44457;BME280;30159;49.316;8.558;2023-04-01T00:23:14;98930.34;;;10.66;100.00
44457;BME280;30159;49.316;8.558;2023-04-01T00:25:41;98917.16;;;10.65;100.00
44457;BME280;30159;49.316;8.558;2023-04-01T00:28:08;98912.59;;;10.65;100.00
44457;BME280;30159;49.316;8.558;2023-04-01T00:30:35;98924.63;;;10.59;100.00
44457;BME280;30159;49.316;8.558;2023-04-01T00:33:03;98920.00;;;10.60;100.00
44457;BME280;30159;49.316;8.558;2023-04-01T00:35:30;98924.63;;;10.59;100.00
44457;BME280;30159;49.316;8.558;2023-04-01T00:37:57;98920.78;;;10.60;100.00
44457;BME280;30159;49.316;8.558;2023-04-01T00:40:26;98929.53;;;10.57;100.00
44457;BME280;30159;49.316;8.558;2023-04-01T00:42:53;98920.19;;;10.63;100.00
44457;BME280;30159;49.316;8.558;2023-04-01T00:45:28;98917.47;;;10.54;100.00
44457;BME280;30159;49.316;8.558;2023-04-01T00:47:56;98920.19;;;10.63;100.00
44457;BME280;30159;49.316;8.558;2023-04-01T00:50:26;98924.94;;;10.66;100.00
44457;BME280;30159;49.316;8.558;2023-04-01T00:52:54;98794.34;;;9.80;100.00
44457;BME280;30159;49.316;8.558;2023-04-01T00:55:21;98924.28;;;10.69;100.00
44457;BME280;30159;49.316;8.558;2023-04-01T00:57:50;98901.94;;;10.60;100.00
44457;BME280;30159;49.316;8.558;2023-04-01T01:00:19;98913.38;;;10.66;100.00
44457;BME280;30159;49.316;8.558;2023-04-01T01:02:49;98854.34;;;10.29;100.00
44457;BME280;30159;49.316;8.558;2023-04-01T01:05:19;98911.28;;;10.71;100.00
44457;BME280;30159;49.316;8.558;2023-04-01T01:07:53;98911.63;;;10.79;100.00
44457;BME280;30159;49.316;8.558;2023-04-01T01:10:26;98923.19;;;10.79;100.00
44457;BME280;30159;49.316;8.558;2023-04-01T01:13:03;98904.66;;;10.78;100.00
44457;BME280;30159;49.316;8.558;2023-04-01T01:15:36;98908.94;;;10.70;100.00
44457;BME280;30159;49.316;8.558;2023-04-01T01:18:09;98850.22;;;10.41;100.00
44457;BME280;30159;49.316;8.558;2023-04-01T01:21:07;98893.84;;;10.78;100.00
44457;BME280;30159;49.316;8.558;2023-04-01T01:24:08;98907.66;;;10.85;100.00
44457;BME280;30159;49.316;8.558;2023-04-01T01:26:46;98906.22;;;10.79;100.00
44457;BME280;30159;49.316;8.558;2023-04-01T01:29:31;98906.22;;;10.79;100.00
44457;BME280;30159;49.316;8.558;2023-04-01T01:32:03;98912.56;;;10.83;100.00
44457;BME280;30159;49.316;8.558;2023-04-01T01:34:36;98898.13;;;10.79;100.00
44457;BME280;30159;49.316;8.558;2023-04-01T01:37:10;98897.34;;;10.87;100.00
44457;BME280;30159;49.316;8.558;2023-04-01T01:39:40;98898.13;;;10.87;100.00
44457;BME280;30159;49.316;8.558;2023-04-01T01:42:12;98890.81;;;10.88;100.00
44457;BME280;30159;49.316;8.558;2023-04-01T01:44:42;98859.25;;;10.62;100.00
44457;BME280;30159;49.316;8.558;2023-04-01T01:47:10;98885.44;;;10.96;100.00
44457;BME280;30159;49.316;8.558;2023-04-01T01:49:39;98888.44;;;10.95;100.00
44457;BME280;30159;49.316;8.558;2023-04-01T01:52:09;98884.66;;;10.96;100.00
44457;BME280;30159;49.316;8.558;2023-04-01T01:54:36;98893.03;;;10.94;100.00
44457;BME280;30159;49.316;8.558;2023-04-01T01:57:05;98844.03;;;10.66;100.00
44457;BME280;30159;49.316;8.558;2023-04-01T01:59:35;98846.75;;;10.66;100.00
44457;BME280;30159;49.316;8.558;2023-04-01T02:02:04;98884.66;;;10.96;100.00
44457;BME280;30159;49.316;8.558;2023-04-01T02:04:34;98880.03;;;11.05;100.00
44457;BME280;30159;49.316;8.558;2023-04-01T02:07:03;98874.47;;;11.10;100.00
44457;BME280;30159;49.316;8.558;2023-04-01T02:09:34;98876.84;;;11.03;100.00
44457;BME280;30159;49.316;8.558;2023-04-01T02:12:03;98879.56;;;11.03;100.00
44457;BME280;30159;49.316;8.558;2023-04-01T02:14:38;98878.44;;;11.04;100.00
44457;BME280;30159;49.316;8.558;2023-04-01T02:17:08;98874.16;;;11.03;100.00
44457;BME280;30159;49.316;8.558;2023-04-01T02:19:39;98828.03;;;10.61;100.00
44457;BME280;30159;49.316;8.558;2023-04-01T02:22:11;98887.19;;;11.01;100.00
44457;BME280;30159;49.316;8.558;2023-04-01T02:24:41;98883.22;;;11.07;100.00
44457;BME280;30159;49.316;8.558;2023-04-01T02:27:10;98820.56;;;10.58;100.00
44457;BME280;30159;49.316;8.558;2023-04-01T02:29:37;98835.47;;;10.82;100.00
44457;BME280;30159;49.316;8.558;2023-04-01T02:32:05;98874.78;;;11.00;100.00
44457;BME280;30159;49.316;8.558;2023-04-01T02:34:32;98891.59;;;11.14;100.00
44457;BME280;30159;49.316;8.558;2023-04-01T02:37:00;98876.34;;;11.18;100.00
44457;BME280;30159;49.316;8.558;2023-04-01T02:39:27;98883.81;;;11.13;100.00
44457;BME280;30159;49.316;8.558;2023-04-01T02:41:54;98889.06;;;11.09;100.00
44457;BME280;30159;49.316;8.558;2023-04-01T02:44:21;98845.75;;;10.88;100.00
44457;BME280;30159;49.316;8.558;2023-04-01T02:46:48;98879.69;;;11.07;100.00
44457;BME280;30159;49.316;8.558;2023-04-01T02:49:14;98888.75;;;11.20;100.00
44457;BME280;30159;49.316;8.558;2023-04-01T02:51:41;98822.63;;;10.79;100.00
44457;BME280;30159;49.316;8.558;2023-04-01T02:54:07;98880.16;;;11.17;100.00
44457;BME280;30159;49.316;8.558;2023-04-01T02:56:34;98890.31;;;11.21;100.00
44457;BME280;30159;49.316;8.558;2023-04-01T02:59:02;98893.81;;;11.12;100.00
44457;BME280;30159;49.316;8.558;2023-04-01T03:01:29;98886.53;;;11.13;100.00
44457;BME280;30159;49.316;8.558;2023-04-01T03:03:55;98887.13;;;11.18;100.00
44457;BME280;30159;49.316;8.558;2023-04-01T03:06:22;98881.28;;;11.16;100.00
44457;BME280;30159;49.316;8.558;2023-04-01T03:08:48;98894.13;;;11.20;100.00
44457;BME280;30159;49.316;8.558;2023-04-01T03:11:15;98880.63;;;11.20;100.00
44457;BME280;30159;49.316;8.558;2023-04-01T03:13:41;98886.16;;;11.23;100.00
44457;BME280;30159;49.316;8.558;2023-04-01T03:16:09;98893.16;;;11.33;100.00
44457;BME280;30159;49.316;8.558;2023-04-01T03:18:36;98889.81;;;11.27;99.97
44457;BME280;30159;49.316;8.558;2023-04-01T03:21:13;98893.00;;;11.21;99.63
44457;BME280;30159;49.316;8.558;2023-04-01T03:23:40;98917.94;;;11.26;100.00
44457;BME280;30159;49.316;8.558;2023-04-01T03:26:07;98758.75;;;10.44;99.03
44457;BME280;30159;49.316;8.558;2023-04-01T03:28:34;98905.38;;;11.30;100.00
44457;BME280;30159;49.316;8.558;2023-04-01T03:31:01;98904.59;;;11.30;99.97
44457;BME280;30159;49.316;8.558;2023-04-01T03:33:28;98899.03;;;11.26;100.00
44457;BME280;30159;49.316;8.558;2023-04-01T03:35:55;98899.84;;;11.27;100.00
44457;BME280;30159;49.316;8.558;2023-04-01T03:38:21;98842.75;;;10.90;100.00
44457;BME280;30159;49.316;8.558;2023-04-01T03:40:48;98907.16;;;11.17;100.00
44457;BME280;30159;49.316;8.558;2023-04-01T03:43:15;98903.38;;;11.01;100.00
44457;BME280;30159;49.316;8.558;2023-04-01T03:45:43;98896.88;;;10.85;100.00
44457;BME280;30159;49.316;8.558;2023-04-01T03:48:10;98879.72;;;10.81;100.00
44457;BME280;30159;49.316;8.558;2023-04-01T03:50:38;98886.84;;;10.76;100.00
44457;BME280;30159;49.316;8.558;2023-04-01T03:53:05;98846.75;;;10.40;100.00
44457;BME280;30159;49.316;8.558;2023-04-01T03:55:32;98882.72;;;10.79;100.00
44457;BME280;30159;49.316;8.558;2023-04-01T03:57:59;98892.13;;;10.73;100.00
44457;BME280;30159;49.316;8.558;2023-04-01T04:00:27;98891.00;;;10.65;100.00
44457;BME280;30159;49.316;8.558;2023-04-01T04:02:54;98901.44;;;10.58;100.00
44457;BME280;30159;49.316;8.558;2023-04-01T04:05:21;98900.19;;;10.55;100.00
44457;BME280;30159;49.316;8.558;2023-04-01T04:07:49;98898.59;;;10.46;100.00
44457;BME280;30159;49.316;8.558;2023-04-01T04:10:16;98895.41;;;10.44;100.00
44457;BME280;30159;49.316;8.558;2023-04-01T04:12:43;98893.53;;;10.44;100.00
44457;BME280;30159;49.316;8.558;2023-04-01T04:15:10;98903.34;;;10.40;100.00
44457;BME280;30159;49.316;8.558;2023-04-01T04:17:37;98813.78;;;9.68;100.00
44457;BME280;30159;49.316;8.558;2023-04-01T04:20:05;98896.78;;;10.24;100.00
44457;BME280;30159;49.316;8.558;2023-04-01T04:22:31;98916.09;;;10.17;100.00
44457;BME280;30159;49.316;8.558;2023-04-01T04:24:59;98903.38;;;10.09;100.00
44457;BME280;30159;49.316;8.558;2023-04-01T04:27:26;98907.00;;;9.96;100.00
44457;BME280;30159;49.316;8.558;2023-04-01T04:29:52;98910.00;;;9.94;100.00
44457;BME280;30159;49.316;8.558;2023-04-01T04:32:19;98900.66;;;9.91;100.00
44457;BME280;30159;49.316;8.558;2023-04-01T04:34:45;98899.84;;;9.82;100.00
44457;BME280;30159;49.316;8.558;2023-04-01T04:37:12;98900.66;;;9.91;100.00
44457;BME280;30159;49.316;8.558;2023-04-01T04:39:38;98883.97;;;9.81;100.00
44457;BME280;30159;49.316;8.558;2023-04-01T04:42:06;98885.88;;;9.80;100.00
44457;BME280;30159;49.316;8.558;2023-04-01T04:44:33;98882.53;;;9.75;100.00
44457;BME280;30159;49.316;8.558;2023-04-01T04:46:59;98879.31;;;9.64;100.00
44457;BME280;30159;49.316;8.558;2023-04-01T04:49:26;98878.34;;;9.60;100.00
44457;BME280;30159;49.316;8.558;2023-04-01T04:51:52;98854.41;;;9.49;100.00
44457;BME280;30159;49.316;8.558;2023-04-01T04:54:18;98878.09;;;9.79;100.00
44457;BME280;30159;49.316;8.558;2023-04-01T04:56:45;98879.03;;;9.74;100.00
44457;BME280;30159;49.316;8.558;2023-04-01T04:59:13;98875.41;;;9.79;100.00
44457;BME280;30159;49.316;8.558;2023-04-01T05:01:39;98876.13;;;9.93;100.00
44457;BME280;30159;49.316;8.558;2023-04-01T05:04:06;98858.19;;;9.88;100.00
44457;BME280;30159;49.316;8.558;2023-04-01T05:06:32;98875.47;;;9.96;100.00
44457;BME280;30159;49.316;8.558;2023-04-01T05:08:59;98869.00;;;10.06;100.00
44457;BME280;30159;49.316;8.558;2023-04-01T05:11:25;98864.88;;;10.08;100.00
44457;BME280;30159;49.316;8.558;2023-04-01T05:13:52;98867.59;;;10.17;100.00
44457;BME280;30159;49.316;8.558;2023-04-01T05:16:20;98870.78;;;10.19;100.00
44457;BME280;30159;49.316;8.558;2023-04-01T05:18:47;98869.38;;;10.22;100.00
44457;BME280;30159;49.316;8.558;2023-04-01T05:21:14;98865.25;;;10.24;100.00
44457;BME280;30159;49.316;8.558;2023-04-01T05:23:41;98877.16;;;10.32;100.00
44457;BME280;30159;49.316;8.558;2023-04-01T05:26:11;98865.59;;;10.31;100.00
44457;BME280;30159;49.316;8.558;2023-04-01T05:28:37;98873.53;;;10.37;100.00
44457;BME280;30159;49.316;8.558;2023-04-01T05:31:05;98872.59;;;10.50;100.00
44457;BME280;30159;49.316;8.558;2023-04-01T05:33:33;98867.66;;;10.43;100.00
44457;BME280;30159;49.316;8.558;2023-04-01T05:36:06;98881.31;;;10.47;100.00
44457;BME280;30159;49.316;8.558;2023-04-01T05:38:33;98803.41;;;10.02;100.00
44457;BME280;30159;49.316;8.558;2023-04-01T05:40:59;98868.66;;;10.56;100.00
44457;BME280;30159;49.316;8.558;2023-04-01T05:43:26;98869.09;;;10.58;100.00
44457;BME280;30159;49.316;8.558;2023-04-01T05:45:53;98804.84;;;10.08;100.00
44457;BME280;30159;49.316;8.558;2023-04-01T05:48:19;98864.34;;;10.55;100.00
44457;BME280;30159;49.316;8.558;2023-04-01T05:50:47;98873.53;;;10.71;100.00
44457;BME280;30159;49.316;8.558;2023-04-01T05:53:14;98872.09;;;10.74;100.00
44457;BME280;30159;49.316;8.558;2023-04-01T05:55:40;98868.47;;;10.79;100.00
44457;BME280;30159;49.316;8.558;2023-04-01T05:58:07;98871.16;;;10.79;100.00
44457;BME280;30159;49.316;8.558;2023-04-01T06:00:33;98872.44;;;10.72;100.00
44457;BME280;30159;49.316;8.558;2023-04-01T06:03:00;98866.41;;;10.84;100.00
44457;BME280;30159;49.316;8.558;2023-04-01T06:05:28;98870.84;;;10.80;100.00
44457;BME280;30159;49.316;8.558;2023-04-01T06:07:58;98871.94;;;10.88;100.00
44457;BME280;30159;49.316;8.558;2023-04-01T06:10:36;98865.28;;;10.94;100.00
44457;BME280;30159;49.316;8.558;2023-04-01T06:13:07;98869.72;;;10.90;100.00
44457;BME280;30159;49.316;8.558;2023-04-01T06:15:39;98740.97;;;10.00;100.00
44457;BME280;30159;49.316;8.558;2023-04-01T06:24:28;98871.59;;;11.15;100.00
44457;BME280;30159;49.316;8.558;2023-04-01T06:27:04;98871.91;;;11.23;100.00
44457;BME280;30159;49.316;8.558;2023-04-01T06:29:49;98871.59;;;11.24;100.00
44457;BME280;30159;49.316;8.558;2023-04-01T06:32:42;98875.91;;;10.99;100.00
44457;BME280;30159;49.316;8.558;2023-04-01T06:35:30;98885.25;;;10.93;100.00
44457;BME280;30159;49.316;8.558;2023-04-01T06:38:20;98712.13;;;9.65;100.00
44457;BME280;30159;49.316;8.558;2023-04-01T06:41:01;98869.75;;;10.55;100.00
44457;BME280;30159;49.316;8.558;2023-04-01T06:43:39;98887.81;;;10.46;100.00
44457;BME280;30159;49.316;8.558;2023-04-01T06:46:13;98872.09;;;10.39;100.00
44457;BME280;30159;49.316;8.558;2023-04-01T06:49:04;98873.56;;;10.54;100.00
44457;BME280;30159;49.316;8.558;2023-04-01T06:51:39;98875.13;;;10.46;100.00
44457;BME280;30159;49.316;8.558;2023-04-01T06:54:15;98874.19;;;10.42;100.00
44457;BME280;30159;49.316;8.558;2023-04-01T06:56:48;98866.03;;;10.25;100.00
44457;BME280;30159;49.316;8.558;2023-04-01T06:59:18;98834.13;;;10.01;100.00
44457;BME280;30159;49.316;8.558;2023-04-01T07:01:47;98815.59;;;9.99;100.00
44457;BME280;30159;49.316;8.558;2023-04-01T07:04:19;98861.91;;;10.27;100.00
44457;BME280;30159;49.316;8.558;2023-04-01T07:06:48;98868.28;;;10.31;100.00
44457;BME280;30159;49.316;8.558;2023-04-01T07:09:19;98861.16;;;10.36;100.00
44457;BME280;30159;49.316;8.558;2023-04-01T07:11:50;98772.31;;;9.78;100.00
44457;BME280;30159;49.316;8.558;2023-04-01T07:14:22;98874.81;;;10.30;100.00
44457;BME280;30159;49.316;8.558;2023-04-01T07:16:56;98866.72;;;10.30;100.00
44457;BME280;30159;49.316;8.558;2023-04-01T07:19:29;98879.69;;;10.37;100.00
44457;BME280;30159;49.316;8.558;2023-04-01T07:22:02;98860.53;;;10.39;100.00
44457;BME280;30159;49.316;8.558;2023-04-01T07:24:33;98873.03;;;10.26;100.00
44457;BME280;30159;49.316;8.558;2023-04-01T07:27:01;98876.56;;;10.35;100.00
44457;BME280;30159;49.316;8.558;2023-04-01T07:29:30;98877.16;;;10.32;100.00
44457;BME280;30159;49.316;8.558;2023-04-01T07:32:09;98874.16;;;10.33;100.00
44457;BME280;30159;49.316;8.558;2023-04-01T07:34:44;98870.78;;;10.28;100.00
44457;BME280;30159;49.316;8.558;2023-04-01T07:37:19;98862.59;;;10.33;100.00
44457;BME280;30159;49.316;8.558;2023-04-01T07:39:56;98879.72;;;10.46;100.00
44457;BME280;30159;49.316;8.558;2023-04-01T07:42:35;98872.59;;;10.59;100.00
44457;BME280;30159;49.316;8.558;2023-04-01T07:45:11;98885.75;;;10.69;100.00
44457;BME280;30159;49.316;8.558;2023-04-01T07:47:51;98880.53;;;10.72;100.00
44457;BME280;30159;49.316;8.558;2023-04-01T07:50:26;98888.16;;;10.70;100.00
44457;BME280;30159;49.316;8.558;2023-04-01T07:53:04;98873.38;;;10.76;100.00
44457;BME280;30159;49.316;8.558;2023-04-01T07:55:40;98891.63;;;10.97;100.00
44457;BME280;30159;49.316;8.558;2023-04-01T07:58:15;98890.03;;;10.96;100.00
44457;BME280;30159;49.316;8.558;2023-04-01T08:00:48;98886.53;;;10.95;100.00
44457;BME280;30159;49.316;8.558;2023-04-01T08:03:28;98884.97;;;10.86;100.00
44457;BME280;30159;49.316;8.558;2023-04-01T08:06:00;98890.66;;;11.10;100.00
44457;BME280;30159;49.316;8.558;2023-04-01T08:08:38;98890.59;;;11.28;100.00
44457;BME280;30159;49.316;8.558;2023-04-01T08:11:16;98880.47;;;11.25;100.00
44457;BME280;30159;49.316;8.558;2023-04-01T08:13:55;98892.66;;;11.39;100.00
44457;BME280;30159;49.316;8.558;2023-04-01T08:16:33;98899.59;;;11.58;100.00
44457;BME280;30159;49.316;8.558;2023-04-01T08:19:06;98871.78;;;11.66;100.00
44457;BME280;30159;49.316;8.558;2023-04-01T08:21:41;98886.38;;;11.65;100.00
44457;BME280;30159;49.316;8.558;2023-04-01T08:24:16;98862.13;;;11.56;100.00
44457;BME280;30159;49.316;8.558;2023-04-01T08:26:46;98826.56;;;11.46;100.00
44457;BME280;30159;49.316;8.558;2023-04-01T08:29:19;98878.84;;;11.88;100.00
44457;BME280;30159;49.316;8.558;2023-04-01T08:31:51;98892.84;;;12.41;100.00
44457;BME280;30159;49.316;8.558;2023-04-01T08:34:23;98883.13;;;12.40;100.00
44457;BME280;30159;49.316;8.558;2023-04-01T08:36:52;98895.94;;;12.31;100.00
44457;BME280;30159;49.316;8.558;2023-04-01T08:39:29;98895.84;;;12.18;100.00
44457;BME280;30159;49.316;8.558;2023-04-01T08:45:19;98886.28;;;11.44;100.00
44457;BME280;30159;49.316;8.558;2023-04-01T08:54:12;98898.22;;;11.34;100.00
44457;BME280;30159;49.316;8.558;2023-04-01T08:56:52;98882.41;;;11.07;100.00
44457;BME280;30159;49.316;8.558;2023-04-01T08:59:30;98832.63;;;10.78;100.00
44457;BME280;30159;49.316;8.558;2023-04-01T09:02:24;98900.16;;;11.25;100.00
44457;BME280;30159;49.316;8.558;2023-04-01T09:08:14;98911.88;;;11.38;100.00
44457;BME280;30159;49.316;8.558;2023-04-01T09:10:56;98860.28;;;11.31;100.00
44457;BME280;30159;49.316;8.558;2023-04-01T09:13:39;98909.03;;;11.81;100.00
44457;BME280;30159;49.316;8.558;2023-04-01T09:16:32;98911.19;;;11.58;100.00
44457;BME280;30159;49.316;8.558;2023-04-01T09:19:24;98915.44;;;11.68;100.00
44457;BME280;30159;49.316;8.558;2023-04-01T09:22:19;98923.97;;;11.79;100.00
44457;BME280;30159;49.316;8.558;2023-04-01T09:25:22;98919.53;;;11.83;100.00
44457;BME280;30159;49.316;8.558;2023-04-01T09:27:56;98924.91;;;11.83;100.00
44457;BME280;30159;49.316;8.558;2023-04-01T09:34:02;98912.09;;;11.71;100.00
44457;BME280;30159;49.316;8.558;2023-04-01T09:36:43;98876.91;;;11.50;100.00
44457;BME280;30159;49.316;8.558;2023-04-01T09:39:26;98926.03;;;11.91;100.00
44457;BME280;30159;49.316;8.558;2023-04-01T09:42:15;98934.94;;;11.91;100.00
44457;BME280;30159;49.316;8.558;2023-04-01T09:44:58;98846.47;;;11.32;100.00
44457;BME280;30159;49.316;8.558;2023-04-01T09:47:43;98927.34;;;11.67;100.00
44457;BME280;30159;49.316;8.558;2023-04-01T09:50:25;98930.53;;;11.60;100.00
44457;BME280;30159;49.316;8.558;2023-04-01T09:53:00;98934.19;;;11.65;100.00
44457;BME280;30159;49.316;8.558;2023-04-01T09:55:55;98927.34;;;11.67;100.00
44457;BME280;30159;49.316;8.558;2023-04-01T09:58:42;98937.78;;;11.86;100.00
44457;BME280;30159;49.316;8.558;2023-04-01T10:01:40;98933.34;;;11.90;100.00
44457;BME280;30159;49.316;8.558;2023-04-01T10:07:37;98775.72;;;11.18;100.00
44457;BME280;30159;49.316;8.558;2023-04-01T10:10:27;98841.09;;;11.71;100.00
44457;BME280;30159;49.316;8.558;2023-04-01T10:16:05;98926.28;;;12.07;100.00
44457;BME280;30159;49.316;8.558;2023-04-01T10:19:12;98929.38;;;12.26;100.00
44457;BME280;30159;49.316;8.558;2023-04-01T10:25:15;98940.91;;;12.06;100.00
44457;BME280;30159;49.316;8.558;2023-04-01T10:31:08;98941.84;;;12.10;100.00
44457;BME280;30159;49.316;8.558;2023-04-01T10:34:05;98936.50;;;11.92;100.00
44457;BME280;30159;49.316;8.558;2023-04-01T10:36:52;98945.66;;;12.09;100.00
44457;BME280;30159;49.316;8.558;2023-04-01T10:39:38;98942.78;;;12.14;100.00
44457;BME280;30159;49.316;8.558;2023-04-01T10:45:47;98947.91;;;12.36;100.00
44457;BME280;30159;49.316;8.558;2023-04-01T10:51:16;98946.78;;;12.37;100.00
44457;BME280;30159;49.316;8.558;2023-04-01T10:54:11;98946.22;;;12.23;100.00
44457;BME280;30159;49.316;8.558;2023-04-01T10:56:46;98957.53;;;12.16;100.00
44457;BME280;30159;49.316;8.558;2023-04-01T11:15:21;98955.06;;;12.02;100.00
44457;BME280;30159;49.316;8.558;2023-04-01T11:18:41;98959.50;;;12.07;100.00
44457;BME280;30159;49.316;8.558;2023-04-01T11:24:24;98958.22;;;12.05;100.00
44457;BME280;30159;49.316;8.558;2023-04-01T11:27:02;98915.41;;;11.77;100.00
44457;BME280;30159;49.316;8.558;2023-04-01T11:29:57;98944.09;;;12.08;100.00
44457;BME280;30159;49.316;8.558;2023-04-01T11:32:37;98900.47;;;11.79;100.00
44457;BME280;30159;49.316;8.558;2023-04-01T11:35:31;98972.97;;;12.16;100.00
44457;BME280;30159;49.316;8.558;2023-04-01T11:38:12;98974.88;;;12.24;100.00
44457;BME280;30159;49.316;8.558;2023-04-01T11:40:49;98908.09;;;11.77;100.00
44457;BME280;30159;49.316;8.558;2023-04-01T11:43:22;98971.22;;;12.20;100.00
44457;BME280;30159;49.316;8.558;2023-04-01T11:46:00;98951.72;;;12.06;100.00
44457;BME280;30159;49.316;8.558;2023-04-01T11:48:38;98975.84;;;12.19;100.00
44457;BME280;30159;49.316;8.558;2023-04-01T11:51:42;98984.56;;;12.16;100.00
44457;BME280;30159;49.316;8.558;2023-04-01T11:54:23;98993.03;;;12.15;100.00
44457;BME280;30159;49.316;8.558;2023-04-01T11:57:09;98989.81;;;12.21;100.00
44457;BME280;30159;49.316;8.558;2023-04-01T12:02:34;98972.22;;;12.45;100.00
44457;BME280;30159;49.316;8.558;2023-04-01T12:05:31;98995.47;;;12.67;100.00
44457;BME280;30159;49.316;8.558;2023-04-01T12:08:11;98988.28;;;12.71;100.00
44457;BME280;30159;49.316;8.558;2023-04-01T12:10:46;98987.28;;;12.76;100.00
44457;BME280;30159;49.316;8.558;2023-04-01T12:13:28;98989.34;;;13.00;100.00
44457;BME280;30159;49.316;8.558;2023-04-01T12:16:06;98997.59;;;12.82;100.00
44457;BME280;30159;49.316;8.558;2023-04-01T12:18:38;98994.06;;;12.82;100.00
44457;BME280;30159;49.316;8.558;2023-04-01T12:21:17;98973.69;;;12.63;100.00
44457;BME280;30159;49.316;8.558;2023-04-01T12:26:56;98997.13;;;12.80;100.00
44457;BME280;30159;49.316;8.558;2023-04-01T12:29:42;98986.63;;;12.79;100.00
44457;BME280;30159;49.316;8.558;2023-04-01T12:32:18;98980.19;;;12.92;100.00
44457;BME280;30159;49.316;8.558;2023-04-01T12:34:58;98980.28;;;12.96;100.00
44457;BME280;30159;49.316;8.558;2023-04-01T12:37:35;98957.78;;;12.83;100.00
44457;BME280;30159;49.316;8.558;2023-04-01T12:40:30;98989.06;;;12.93;100.00
44457;BME280;30159;49.316;8.558;2023-04-01T12:43:20;98843.22;;;11.86;100.00
44457;BME280;30159;49.316;8.558;2023-04-01T12:45:56;98993.97;;;12.78;100.00
44457;BME280;30159;49.316;8.558;2023-04-01T12:51:36;99003.09;;;13.16;100.00
44457;BME280;30159;49.316;8.558;2023-04-01T12:54:21;98930.25;;;12.60;100.00
44457;BME280;30159;49.316;8.558;2023-04-01T12:57:05;99004.13;;;13.02;100.00
44457;BME280;30159;49.316;8.558;2023-04-01T12:59:50;98997.81;;;13.19;100.00
44457;BME280;30159;49.316;8.558;2023-04-01T13:02:30;98974.28;;;12.90;100.00
44457;BME280;30159;49.316;8.558;2023-04-01T13:05:37;99001.09;;;13.25;100.00
44457;BME280;30159;49.316;8.558;2023-04-01T13:08:28;99007.78;;;13.27;100.00
44457;BME280;30159;49.316;8.558;2023-04-01T13:11:09;99006.00;;;13.32;100.00
44457;BME280;30159;49.316;8.558;2023-04-01T13:14:02;98976.69;;;13.13;100.00
44457;BME280;30159;49.316;8.558;2023-04-01T13:16:34;99013.75;;;13.54;100.00
44457;BME280;30159;49.316;8.558;2023-04-01T13:19:07;99009.47;;;13.53;100.00
44457;BME280;30159;49.316;8.558;2023-04-01T13:21:44;98994.19;;;13.36;100.00
44457;BME280;30159;49.316;8.558;2023-04-01T13:24:25;99020.03;;;13.67;100.00
44457;BME280;30159;49.316;8.558;2023-04-01T13:27:01;98981.00;;;13.47;100.00
44457;BME280;30159;49.316;8.558;2023-04-01T13:29:34;99023.47;;;13.88;100.00
44457;BME280;30159;49.316;8.558;2023-04-01T13:32:13;99032.69;;;13.75;100.00
44457;BME280;30159;49.316;8.558;2023-04-01T13:34:52;99035.03;;;13.64;100.00
44457;BME280;30159;49.316;8.558;2023-04-01T13:37:32;99044.44;;;13.46;100.00
44457;BME280;30159;49.316;8.558;2023-04-01T13:40:22;99036.31;;;13.46;100.00
44457;BME280;30159;49.316;8.558;2023-04-01T13:42:53;99038.75;;;13.39;100.00
44457;BME280;30159;49.316;8.558;2023-04-01T13:45:27;99045.25;;;13.17;100.00
44457;BME280;30159;49.316;8.558;2023-04-01T13:48:28;99044.88;;;13.27;100.00
44457;BME280;30159;49.316;8.558;2023-04-01T13:51:13;99036.44;;;13.28;100.00
44457;BME280;30159;49.316;8.558;2023-04-01T13:54:08;99043.25;;;13.35;100.00
44457;BME280;30159;49.316;8.558;2023-04-01T13:56:48;99040.59;;;13.47;100.00
44457;BME280;30159;49.316;8.558;2023-04-01T13:59:42;99049.84;;;13.25;100.00
44457;BME280;30159;49.316;8.558;2023-04-01T14:05:32;99044.69;;;13.53;100.00
44457;BME280;30159;49.316;8.558;2023-04-01T14:08:09;99056.84;;;13.47;100.00
44457;BME280;30159;49.316;8.558;2023-04-01T14:10:43;99013.13;;;13.15;100.00
44457;BME280;30159;49.316;8.558;2023-04-01T14:13:17;99061.28;;;13.31;100.00
44457;BME280;30159;49.316;8.558;2023-04-01T14:16:00;99048.22;;;13.24;100.00
44457;BME280;30159;49.316;8.558;2023-04-01T14:18:45;99057.69;;;13.18;100.00
44457;BME280;30159;49.316;8.558;2023-04-01T14:21:38;99060.91;;;13.11;100.00
44457;BME280;30159;49.316;8.558;2023-04-01T14:24:36;99056.53;;;12.98;100.00
44457;BME280;30159;49.316;8.558;2023-04-01T14:27:26;99064.81;;;13.01;100.00
44457;BME280;30159;49.316;8.558;2023-04-01T14:30:15;99058.94;;;12.99;100.00
44457;BME280;30159;49.316;8.558;2023-04-01T14:32:50;99063.09;;;12.97;100.00
44457;BME280;30159;49.316;8.558;2023-04-01T14:35:31;99067.25;;;12.94;100.00
44457;BME280;30159;49.316;8.558;2023-04-01T14:38:11;99076.06;;;12.82;100.00
44457;BME280;30159;49.316;8.558;2023-04-01T14:40:54;99071.44;;;12.83;100.00
44457;BME280;30159;49.316;8.558;2023-04-01T14:43:44;99075.56;;;12.89;100.00